sensor_id;sensor_type;location;lat;lon;timestamp;P1;durP1;ratioP1;P2;durP2;ratioP2
26582;SDS011;14230;45.382;10.998;2022-10-16T00:01:45;73.13;;;47.35;;
26582;SDS011;14230;45.382;10.998;2022-10-16T00:04:15;72.50;;;44.80;;
26582;SDS011;14230;45.382;10.998;2022-10-16T00:06:44;77.88;;;45.80;;
26582;SDS011;14230;45.382;10.998;2022-10-16T00:09:14;85.45;;;46.90;;
26582;SDS011;14230;45.382;10.998;2022-10-16T00:11:43;85.55;;;46.88;;
26582;SDS011;14230;45.382;10.998;2022-10-16T00:14:13;78.22;;;45.22;;
26582;SDS011;14230;45.382;10.998;2022-10-16T00:16:43;75.72;;;45.05;;
26582;SDS011;14230;45.382;10.998;2022-10-16T00:19:12;79.75;;;46.35;;
26582;SDS011;14230;45.382;10.998;2022-10-16T00:21:41;84.38;;;46.63;;
26582;SDS011;14230;45.382;10.998;2022-10-16T00:24:11;77.65;;;46.75;;
26582;SDS011;14230;45.382;10.998;2022-10-16T00:26:40;81.53;;;46.63;;
26582;SDS011;14230;45.382;10.998;2022-10-16T00:29:10;81.35;;;46.17;;
26582;SDS011;14230;45.382;10.998;2022-10-16T00:31:39;78.50;;;44.45;;
26582;SDS011;14230;45.382;10.998;2022-10-16T00:34:09;74.82;;;46.45;;
26582;SDS011;14230;45.382;10.998;2022-10-16T00:36:38;81.95;;;49.22;;
26582;SDS011;14230;45.382;10.998;2022-10-16T00:39:07;80.10;;;45.20;;
26582;SDS011;14230;45.382;10.998;2022-10-16T00:41:36;73.72;;;45.28;;
26582;SDS011;14230;45.382;10.998;2022-10-16T00:47:17;78.68;;;47.80;;
26582;SDS011;14230;45.382;10.998;2022-10-16T00:52:45;72.32;;;44.63;;
26582;SDS011;14230;45.382;10.998;2022-10-16T00:55:17;74.00;;;44.85;;
26582;SDS011;14230;45.382;10.998;2022-10-16T00:57:47;76.82;;;46.58;;
26582;SDS011;14230;45.382;10.998;2022-10-16T01:00:19;84.72;;;50.10;;
26582;SDS011;14230;45.382;10.998;2022-10-16T01:02:52;80.20;;;48.88;;
26582;SDS011;14230;45.382;10.998;2022-10-16T01:05:23;78.45;;;46.15;;
26582;SDS011;14230;45.382;10.998;2022-10-16T01:13:31;77.22;;;44.95;;
26582;SDS011;14230;45.382;10.998;2022-10-16T01:16:06;82.07;;;47.15;;
26582;SDS011;14230;45.382;10.998;2022-10-16T01:18:52;80.88;;;48.40;;
26582;SDS011;14230;45.382;10.998;2022-10-16T01:21:29;78.90;;;49.30;;
26582;SDS011;14230;45.382;10.998;2022-10-16T01:29:42;86.68;;;48.63;;
26582;SDS011;14230;45.382;10.998;2022-10-16T01:35:09;81.95;;;46.95;;
26582;SDS011;14230;45.382;10.998;2022-10-16T01:40:41;78.55;;;45.78;;
26582;SDS011;14230;45.382;10.998;2022-10-16T01:43:17;76.15;;;44.58;;
26582;SDS011;14230;45.382;10.998;2022-10-16T01:46:00;82.45;;;44.40;;
26582;SDS011;14230;45.382;10.998;2022-10-16T01:48:29;75.47;;;46.15;;
26582;SDS011;14230;45.382;10.998;2022-10-16T01:51:19;82.38;;;45.45;;
26582;SDS011;14230;45.382;10.998;2022-10-16T01:53:52;76.15;;;44.58;;
26582;SDS011;14230;45.382;10.998;2022-10-16T01:56:23;79.85;;;45.40;;
26582;SDS011;14230;45.382;10.998;2022-10-16T01:58:59;78.40;;;46.67;;
26582;SDS011;14230;45.382;10.998;2022-10-16T02:01:38;73.72;;;42.45;;
26582;SDS011;14230;45.382;10.998;2022-10-16T02:06:53;80.95;;;44.60;;
26582;SDS011;14230;45.382;10.998;2022-10-16T02:09:23;74.68;;;44.53;;
26582;SDS011;14230;45.382;10.998;2022-10-16T02:11:54;79.63;;;46.30;;
26582;SDS011;14230;45.382;10.998;2022-10-16T02:14:26;73.53;;;45.70;;
26582;SDS011;14230;45.382;10.998;2022-10-16T02:16:53;80.40;;;44.97;;
26582;SDS011;14230;45.382;10.998;2022-10-16T02:19:21;75.30;;;44.00;;
26582;SDS011;14230;45.382;10.998;2022-10-16T02:21:50;72.85;;;43.13;;
26582;SDS011;14230;45.382;10.998;2022-10-16T02:27:01;73.38;;;44.47;;
26582;SDS011;14230;45.382;10.998;2022-10-16T02:29:36;76.20;;;43.65;;
26582;SDS011;14230;45.382;10.998;2022-10-16T02:34:35;74.82;;;43.70;;
26582;SDS011;14230;45.382;10.998;2022-10-16T02:37:03;75.07;;;45.38;;
26582;SDS011;14230;45.382;10.998;2022-10-16T02:39:32;72.90;;;45.47;;
26582;SDS011;14230;45.382;10.998;2022-10-16T02:42:00;75.22;;;43.13;;
26582;SDS011;14230;45.382;10.998;2022-10-16T02:44:28;83.50;;;46.33;;
26582;SDS011;14230;45.382;10.998;2022-10-16T02:46:56;75.55;;;44.78;;
26582;SDS011;14230;45.382;10.998;2022-10-16T02:49:24;74.97;;;47.85;;
26582;SDS011;14230;45.382;10.998;2022-10-16T02:51:51;80.63;;;48.95;;
26582;SDS011;14230;45.382;10.998;2022-10-16T02:54:18;81.00;;;50.10;;
26582;SDS011;14230;45.382;10.998;2022-10-16T02:56:46;79.22;;;49.55;;
26582;SDS011;14230;45.382;10.998;2022-10-16T02:59:13;74.90;;;46.72;;
26582;SDS011;14230;45.382;10.998;2022-10-16T03:01:41;82.18;;;46.58;;
26582;SDS011;14230;45.382;10.998;2022-10-16T03:04:09;75.57;;;45.80;;
26582;SDS011;14230;45.382;10.998;2022-10-16T03:06:36;73.10;;;46.22;;
26582;SDS011;14230;45.382;10.998;2022-10-16T03:09:04;82.82;;;47.75;;
26582;SDS011;14230;45.382;10.998;2022-10-16T03:11:32;73.93;;;45.60;;
26582;SDS011;14230;45.382;10.998;2022-10-16T03:13:59;80.22;;;46.15;;
26582;SDS011;14230;45.382;10.998;2022-10-16T03:16:27;84.47;;;50.63;;
26582;SDS011;14230;45.382;10.998;2022-10-16T03:18:54;79.75;;;46.63;;
26582;SDS011;14230;45.382;10.998;2022-10-16T03:21:22;85.85;;;50.50;;
26582;SDS011;14230;45.382;10.998;2022-10-16T03:23:49;85.75;;;50.70;;
26582;SDS011;14230;45.382;10.998;2022-10-16T03:26:16;77.10;;;43.88;;
26582;SDS011;14230;45.382;10.998;2022-10-16T03:28:44;77.05;;;46.85;;
26582;SDS011;14230;45.382;10.998;2022-10-16T03:31:11;80.00;;;47.28;;
26582;SDS011;14230;45.382;10.998;2022-10-16T03:33:39;76.90;;;44.53;;
26582;SDS011;14230;45.382;10.998;2022-10-16T03:36:06;81.18;;;47.03;;
26582;SDS011;14230;45.382;10.998;2022-10-16T03:38:34;75.95;;;45.72;;
26582;SDS011;14230;45.382;10.998;2022-10-16T03:41:01;73.78;;;44.83;;
26582;SDS011;14230;45.382;10.998;2022-10-16T03:43:30;71.28;;;45.15;;
26582;SDS011;14230;45.382;10.998;2022-10-16T03:45:58;74.82;;;44.47;;
26582;SDS011;14230;45.382;10.998;2022-10-16T03:48:25;80.50;;;46.83;;
26582;SDS011;14230;45.382;10.998;2022-10-16T03:50:53;77.53;;;45.25;;
26582;SDS011;14230;45.382;10.998;2022-10-16T03:53:21;80.00;;;45.28;;
26582;SDS011;14230;45.382;10.998;2022-10-16T03:55:49;78.60;;;46.25;;
26582;SDS011;14230;45.382;10.998;2022-10-16T03:58:16;80.00;;;45.85;;
26582;SDS011;14230;45.382;10.998;2022-10-16T04:00:44;69.65;;;43.42;;
26582;SDS011;14230;45.382;10.998;2022-10-16T04:03:13;69.30;;;44.00;;
26582;SDS011;14230;45.382;10.998;2022-10-16T04:05:41;74.93;;;42.60;;
26582;SDS011;14230;45.382;10.998;2022-10-16T04:08:09;73.68;;;43.67;;
26582;SDS011;14230;45.382;10.998;2022-10-16T04:10:36;78.25;;;45.55;;
26582;SDS011;14230;45.382;10.998;2022-10-16T04:13:04;72.97;;;43.25;;
26582;SDS011;14230;45.382;10.998;2022-10-16T04:15:31;80.68;;;45.35;;
26582;SDS011;14230;45.382;10.998;2022-10-16T04:17:59;76.15;;;47.22;;
26582;SDS011;14230;45.382;10.998;2022-10-16T04:20:26;70.65;;;45.78;;
26582;SDS011;14230;45.382;10.998;2022-10-16T04:22:54;73.05;;;42.58;;
26582;SDS011;14230;45.382;10.998;2022-10-16T04:25:21;75.43;;;45.13;;
26582;SDS011;14230;45.382;10.998;2022-10-16T04:27:49;71.60;;;44.45;;
26582;SDS011;14230;45.382;10.998;2022-10-16T04:30:16;74.30;;;44.85;;
26582;SDS011;14230;45.382;10.998;2022-10-16T04:32:47;75.57;;;46.63;;
26582;SDS011;14230;45.382;10.998;2022-10-16T04:37:44;73.60;;;40.88;;
26582;SDS011;14230;45.382;10.998;2022-10-16T04:40:11;72.20;;;43.15;;
26582;SDS011;14230;45.382;10.998;2022-10-16T04:42:39;81.20;;;45.33;;
26582;SDS011;14230;45.382;10.998;2022-10-16T04:45:08;78.40;;;44.92;;
26582;SDS011;14230;45.382;10.998;2022-10-16T04:47:42;74.60;;;44.13;;
26582;SDS011;14230;45.382;10.998;2022-10-16T04:50:09;69.82;;;43.58;;
26582;SDS011;14230;45.382;10.998;2022-10-16T04:52:37;72.80;;;45.95;;
26582;SDS011;14230;45.382;10.998;2022-10-16T04:55:07;73.50;;;42.72;;
26582;SDS011;14230;45.382;10.998;2022-10-16T04:57:35;72.85;;;44.33;;
26582;SDS011;14230;45.382;10.998;2022-10-16T05:00:02;76.03;;;45.28;;
26582;SDS011;14230;45.382;10.998;2022-10-16T05:02:30;73.50;;;44.63;;
26582;SDS011;14230;45.382;10.998;2022-10-16T05:04:58;69.88;;;42.15;;
26582;SDS011;14230;45.382;10.998;2022-10-16T05:07:25;77.32;;;45.13;;
26582;SDS011;14230;45.382;10.998;2022-10-16T05:09:54;82.35;;;45.13;;
26582;SDS011;14230;45.382;10.998;2022-10-16T05:12:21;74.32;;;44.45;;
26582;SDS011;14230;45.382;10.998;2022-10-16T05:14:49;77.28;;;46.65;;
26582;SDS011;14230;45.382;10.998;2022-10-16T05:17:16;72.68;;;46.22;;
26582;SDS011;14230;45.382;10.998;2022-10-16T05:19:44;73.80;;;47.55;;
26582;SDS011;14230;45.382;10.998;2022-10-16T05:22:11;79.88;;;46.28;;
26582;SDS011;14230;45.382;10.998;2022-10-16T05:24:38;79.55;;;45.80;;
26582;SDS011;14230;45.382;10.998;2022-10-16T05:27:06;82.07;;;48.00;;
26582;SDS011;14230;45.382;10.998;2022-10-16T05:29:33;76.03;;;47.83;;
26582;SDS011;14230;45.382;10.998;2022-10-16T05:32:02;79.20;;;49.45;;
26582;SDS011;14230;45.382;10.998;2022-10-16T05:34:29;82.25;;;46.88;;
26582;SDS011;14230;45.382;10.998;2022-10-16T05:36:57;80.07;;;47.20;;
26582;SDS011;14230;45.382;10.998;2022-10-16T05:39:24;76.72;;;45.95;;
26582;SDS011;14230;45.382;10.998;2022-10-16T05:41:52;78.90;;;47.83;;
26582;SDS011;14230;45.382;10.998;2022-10-16T05:44:19;77.57;;;49.30;;
26582;SDS011;14230;45.382;10.998;2022-10-16T05:46:47;84.57;;;51.10;;
26582;SDS011;14230;45.382;10.998;2022-10-16T05:49:15;88.35;;;48.20;;
26582;SDS011;14230;45.382;10.998;2022-10-16T05:51:42;83.40;;;48.92;;
26582;SDS011;14230;45.382;10.998;2022-10-16T05:54:10;79.32;;;46.33;;
26582;SDS011;14230;45.382;10.998;2022-10-16T05:56:37;74.28;;;47.97;;
26582;SDS011;14230;45.382;10.998;2022-10-16T05:59:05;75.82;;;45.20;;
26582;SDS011;14230;45.382;10.998;2022-10-16T06:01:32;76.05;;;46.38;;
26582;SDS011;14230;45.382;10.998;2022-10-16T06:04:00;75.47;;;46.38;;
26582;SDS011;14230;45.382;10.998;2022-10-16T06:06:28;73.07;;;46.13;;
26582;SDS011;14230;45.382;10.998;2022-10-16T06:08:56;83.28;;;48.72;;
26582;SDS011;14230;45.382;10.998;2022-10-16T06:11:25;76.82;;;47.03;;
26582;SDS011;14230;45.382;10.998;2022-10-16T06:13:56;72.80;;;46.33;;
26582;SDS011;14230;45.382;10.998;2022-10-16T06:16:25;73.60;;;45.63;;
26582;SDS011;14230;45.382;10.998;2022-10-16T06:18:53;72.32;;;46.22;;
26582;SDS011;14230;45.382;10.998;2022-10-16T06:21:26;81.93;;;44.40;;
26582;SDS011;14230;45.382;10.998;2022-10-16T06:23:55;68.40;;;42.75;;
26582;SDS011;14230;45.382;10.998;2022-10-16T06:26:25;73.68;;;46.80;;
26582;SDS011;14230;45.382;10.998;2022-10-16T06:28:55;75.97;;;46.67;;
26582;SDS011;14230;45.382;10.998;2022-10-16T06:31:23;79.47;;;46.42;;
26582;SDS011;14230;45.382;10.998;2022-10-16T06:33:54;76.25;;;47.25;;
26582;SDS011;14230;45.382;10.998;2022-10-16T06:36:23;74.40;;;44.55;;
26582;SDS011;14230;45.382;10.998;2022-10-16T06:38:51;73.88;;;45.75;;
26582;SDS011;14230;45.382;10.998;2022-10-16T06:41:20;76.60;;;45.80;;
26582;SDS011;14230;45.382;10.998;2022-10-16T06:43:49;76.75;;;46.65;;
26582;SDS011;14230;45.382;10.998;2022-10-16T06:46:17;72.70;;;44.63;;
26582;SDS011;14230;45.382;10.998;2022-10-16T06:48:46;77.82;;;44.25;;
26582;SDS011;14230;45.382;10.998;2022-10-16T06:51:15;79.68;;;46.58;;
26582;SDS011;14230;45.382;10.998;2022-10-16T06:53:45;68.22;;;44.15;;
26582;SDS011;14230;45.382;10.998;2022-10-16T06:56:29;76.03;;;47.17;;
26582;SDS011;14230;45.382;10.998;2022-10-16T06:58:58;77.97;;;47.35;;
26582;SDS011;14230;45.382;10.998;2022-10-16T07:01:26;75.93;;;47.58;;
26582;SDS011;14230;45.382;10.998;2022-10-16T07:03:53;78.00;;;48.15;;
26582;SDS011;14230;45.382;10.998;2022-10-16T07:06:22;84.82;;;46.47;;
26582;SDS011;14230;45.382;10.998;2022-10-16T07:08:50;68.70;;;43.53;;
26582;SDS011;14230;45.382;10.998;2022-10-16T07:11:19;70.50;;;47.80;;
26582;SDS011;14230;45.382;10.998;2022-10-16T07:13:48;81.90;;;47.58;;
26582;SDS011;14230;45.382;10.998;2022-10-16T07:16:21;78.18;;;48.03;;
26582;SDS011;14230;45.382;10.998;2022-10-16T07:18:57;73.30;;;46.35;;
26582;SDS011;14230;45.382;10.998;2022-10-16T07:21:28;70.25;;;43.58;;
26582;SDS011;14230;45.382;10.998;2022-10-16T07:23:58;79.25;;;47.28;;
26582;SDS011;14230;45.382;10.998;2022-10-16T07:26:31;74.03;;;46.75;;
26582;SDS011;14230;45.382;10.998;2022-10-16T07:29:01;71.63;;;47.25;;
26582;SDS011;14230;45.382;10.998;2022-10-16T07:31:28;78.35;;;48.65;;
26582;SDS011;14230;45.382;10.998;2022-10-16T07:33:57;75.95;;;47.85;;
26582;SDS011;14230;45.382;10.998;2022-10-16T07:36:25;75.32;;;46.45;;
26582;SDS011;14230;45.382;10.998;2022-10-16T07:38:52;77.40;;;50.88;;
26582;SDS011;14230;45.382;10.998;2022-10-16T07:41:26;73.03;;;45.88;;
26582;SDS011;14230;45.382;10.998;2022-10-16T07:43:54;74.55;;;47.05;;
26582;SDS011;14230;45.382;10.998;2022-10-16T07:46:24;79.18;;;47.55;;
26582;SDS011;14230;45.382;10.998;2022-10-16T07:48:51;77.05;;;49.10;;
26582;SDS011;14230;45.382;10.998;2022-10-16T07:51:21;78.47;;;50.65;;
26582;SDS011;14230;45.382;10.998;2022-10-16T07:53:50;80.32;;;50.00;;
26582;SDS011;14230;45.382;10.998;2022-10-16T07:56:19;77.45;;;48.80;;
26582;SDS011;14230;45.382;10.998;2022-10-16T07:58:47;90.95;;;52.70;;
26582;SDS011;14230;45.382;10.998;2022-10-16T08:01:16;78.68;;;50.47;;
26582;SDS011;14230;45.382;10.998;2022-10-16T08:03:45;77.32;;;48.20;;
26582;SDS011;14230;45.382;10.998;2022-10-16T08:06:14;77.85;;;49.92;;
26582;SDS011;14230;45.382;10.998;2022-10-16T08:08:43;80.80;;;51.30;;
26582;SDS011;14230;45.382;10.998;2022-10-16T08:11:11;77.65;;;50.80;;
26582;SDS011;14230;45.382;10.998;2022-10-16T08:13:38;79.25;;;52.90;;
26582;SDS011;14230;45.382;10.998;2022-10-16T08:16:06;80.95;;;51.58;;
26582;SDS011;14230;45.382;10.998;2022-10-16T08:18:38;81.55;;;51.28;;
26582;SDS011;14230;45.382;10.998;2022-10-16T08:21:06;77.90;;;50.73;;
26582;SDS011;14230;45.382;10.998;2022-10-16T08:23:44;83.60;;;51.75;;
26582;SDS011;14230;45.382;10.998;2022-10-16T08:26:12;79.40;;;49.30;;
26582;SDS011;14230;45.382;10.998;2022-10-16T08:28:39;84.55;;;49.97;;
26582;SDS011;14230;45.382;10.998;2022-10-16T08:31:11;76.47;;;51.90;;
26582;SDS011;14230;45.382;10.998;2022-10-16T08:33:41;79.63;;;51.10;;
26582;SDS011;14230;45.382;10.998;2022-10-16T08:36:12;77.68;;;51.88;;
26582;SDS011;14230;45.382;10.998;2022-10-16T08:38:40;80.03;;;56.10;;
26582;SDS011;14230;45.382;10.998;2022-10-16T08:41:13;72.18;;;54.95;;
26582;SDS011;14230;45.382;10.998;2022-10-16T08:49:03;68.65;;;61.20;;
26582;SDS011;14230;45.382;10.998;2022-10-16T08:51:36;74.90;;;62.13;;
26582;SDS011;14230;45.382;10.998;2022-10-16T08:57:13;73.28;;;60.35;;
26582;SDS011;14230;45.382;10.998;2022-10-16T08:59:49;67.90;;;59.88;;
26582;SDS011;14230;45.382;10.998;2022-10-16T09:07:47;73.75;;;64.88;;
26582;SDS011;14230;45.382;10.998;2022-10-16T09:11:16;77.07;;;60.40;;
26582;SDS011;14230;45.382;10.998;2022-10-16T09:19:54;78.18;;;64.35;;
26582;SDS011;14230;45.382;10.998;2022-10-16T09:22:30;79.07;;;67.78;;
26582;SDS011;14230;45.382;10.998;2022-10-16T09:25:10;78.72;;;60.60;;
26582;SDS011;14230;45.382;10.998;2022-10-16T09:27:40;77.95;;;66.85;;
26582;SDS011;14230;45.382;10.998;2022-10-16T09:30:19;71.38;;;62.50;;
26582;SDS011;14230;45.382;10.998;2022-10-16T09:32:48;75.25;;;67.05;;
26582;SDS011;14230;45.382;10.998;2022-10-16T09:35:38;84.47;;;66.57;;
26582;SDS011;14230;45.382;10.998;2022-10-16T09:38:07;75.63;;;67.03;;
26582;SDS011;14230;45.382;10.998;2022-10-16T09:40:37;76.82;;;67.07;;
26582;SDS011;14230;45.382;10.998;2022-10-16T09:45:57;67.82;;;60.00;;
26582;SDS011;14230;45.382;10.998;2022-10-16T09:48:28;70.78;;;63.08;;
26582;SDS011;14230;45.382;10.998;2022-10-16T09:51:01;70.10;;;62.53;;
26582;SDS011;14230;45.382;10.998;2022-10-16T09:53:41;65.85;;;58.35;;
26582;SDS011;14230;45.382;10.998;2022-10-16T09:56:20;70.35;;;62.85;;
26582;SDS011;14230;45.382;10.998;2022-10-16T09:58:54;71.13;;;63.75;;
26582;SDS011;14230;45.382;10.998;2022-10-16T10:01:26;60.83;;;54.53;;
26582;SDS011;14230;45.382;10.998;2022-10-16T10:04:04;68.00;;;59.47;;
26582;SDS011;14230;45.382;10.998;2022-10-16T10:06:33;64.80;;;58.08;;
26582;SDS011;14230;45.382;10.998;2022-10-16T10:11:44;67.28;;;59.90;;
26582;SDS011;14230;45.382;10.998;2022-10-16T10:16:45;67.82;;;60.55;;
26582;SDS011;14230;45.382;10.998;2022-10-16T10:19:18;61.80;;;54.85;;
26582;SDS011;14230;45.382;10.998;2022-10-16T10:21:51;63.88;;;57.17;;
26582;SDS011;14230;45.382;10.998;2022-10-16T10:24:19;64.15;;;56.28;;
26582;SDS011;14230;45.382;10.998;2022-10-16T10:32:22;52.30;;;45.80;;
26582;SDS011;14230;45.382;10.998;2022-10-16T10:35:07;61.63;;;54.17;;
26582;SDS011;14230;45.382;10.998;2022-10-16T10:43:01;65.10;;;58.25;;
26582;SDS011;14230;45.382;10.998;2022-10-16T10:45:47;63.53;;;56.67;;
26582;SDS011;14230;45.382;10.998;2022-10-16T10:51:13;67.18;;;56.78;;
26582;SDS011;14230;45.382;10.998;2022-10-16T10:54:01;58.50;;;52.00;;
26582;SDS011;14230;45.382;10.998;2022-10-16T11:01:50;58.20;;;47.05;;
26582;SDS011;14230;45.382;10.998;2022-10-16T11:07:04;60.03;;;51.17;;
26582;SDS011;14230;45.382;10.998;2022-10-16T11:09:36;68.22;;;51.05;;
26582;SDS011;14230;45.382;10.998;2022-10-16T11:12:21;60.08;;;44.47;;
26582;SDS011;14230;45.382;10.998;2022-10-16T11:15:14;60.50;;;47.80;;
26582;SDS011;14230;45.382;10.998;2022-10-16T11:17:59;64.07;;;47.45;;
26582;SDS011;14230;45.382;10.998;2022-10-16T11:20:37;58.53;;;45.45;;
26582;SDS011;14230;45.382;10.998;2022-10-16T11:26:28;61.38;;;47.65;;
26582;SDS011;14230;45.382;10.998;2022-10-16T11:29:01;58.10;;;45.88;;
26582;SDS011;14230;45.382;10.998;2022-10-16T11:31:36;55.00;;;46.17;;
26582;SDS011;14230;45.382;10.998;2022-10-16T11:34:13;64.13;;;45.53;;
26582;SDS011;14230;45.382;10.998;2022-10-16T11:40:10;68.28;;;50.30;;
26582;SDS011;14230;45.382;10.998;2022-10-16T11:42:44;57.17;;;45.30;;
26582;SDS011;14230;45.382;10.998;2022-10-16T11:48:15;63.40;;;46.28;;
26582;SDS011;14230;45.382;10.998;2022-10-16T11:56:42;59.13;;;46.63;;
26582;SDS011;14230;45.382;10.998;2022-10-16T11:59:16;59.63;;;44.25;;
26582;SDS011;14230;45.382;10.998;2022-10-16T12:04:26;65.97;;;44.67;;
26582;SDS011;14230;45.382;10.998;2022-10-16T12:07:23;60.80;;;47.15;;
26582;SDS011;14230;45.382;10.998;2022-10-16T12:10:09;58.08;;;47.25;;
26582;SDS011;14230;45.382;10.998;2022-10-16T12:12:53;59.28;;;46.42;;
26582;SDS011;14230;45.382;10.998;2022-10-16T12:18:21;67.22;;;46.60;;
26582;SDS011;14230;45.382;10.998;2022-10-16T12:20:57;63.38;;;47.58;;
26582;SDS011;14230;45.382;10.998;2022-10-16T12:23:27;68.22;;;48.45;;
26582;SDS011;14230;45.382;10.998;2022-10-16T12:25:56;66.05;;;46.30;;
26582;SDS011;14230;45.382;10.998;2022-10-16T12:28:28;65.93;;;48.25;;
26582;SDS011;14230;45.382;10.998;2022-10-16T12:30:59;66.72;;;48.33;;
26582;SDS011;14230;45.382;10.998;2022-10-16T12:36:13;61.78;;;46.13;;
26582;SDS011;14230;45.382;10.998;2022-10-16T12:41:23;68.35;;;51.35;;
26582;SDS011;14230;45.382;10.998;2022-10-16T12:43:53;60.95;;;45.53;;
26582;SDS011;14230;45.382;10.998;2022-10-16T12:46:23;64.95;;;48.47;;
26582;SDS011;14230;45.382;10.998;2022-10-16T12:51:42;61.85;;;46.75;;
26582;SDS011;14230;45.382;10.998;2022-10-16T13:21:41;58.42;;;46.55;;
26582;SDS011;14230;45.382;10.998;2022-10-16T13:30:02;63.72;;;45.70;;
26582;SDS011;14230;45.382;10.998;2022-10-16T13:32:35;60.90;;;41.97;;
26582;SDS011;14230;45.382;10.998;2022-10-16T13:35:03;65.03;;;46.10;;
26582;SDS011;14230;45.382;10.998;2022-10-16T13:37:50;57.15;;;42.05;;
26582;SDS011;14230;45.382;10.998;2022-10-16T13:40:19;64.30;;;43.60;;
26582;SDS011;14230;45.382;10.998;2022-10-16T13:42:50;66.17;;;44.83;;
26582;SDS011;14230;45.382;10.998;2022-10-16T13:45:20;57.75;;;43.38;;
26582;SDS011;14230;45.382;10.998;2022-10-16T13:47:49;57.05;;;44.30;;
26582;SDS011;14230;45.382;10.998;2022-10-16T13:50:27;60.45;;;42.05;;
26582;SDS011;14230;45.382;10.998;2022-10-16T13:53:06;63.63;;;43.75;;
26582;SDS011;14230;45.382;10.998;2022-10-16T13:55:33;57.60;;;40.67;;
26582;SDS011;14230;45.382;10.998;2022-10-16T13:58:05;57.15;;;41.20;;
26582;SDS011;14230;45.382;10.998;2022-10-16T14:00:35;62.53;;;45.40;;
26582;SDS011;14230;45.382;10.998;2022-10-16T14:03:22;58.35;;;43.15;;
26582;SDS011;14230;45.382;10.998;2022-10-16T14:05:55;63.97;;;45.20;;
26582;SDS011;14230;45.382;10.998;2022-10-16T14:08:26;56.53;;;41.40;;
26582;SDS011;14230;45.382;10.998;2022-10-16T14:10:56;56.35;;;43.42;;
26582;SDS011;14230;45.382;10.998;2022-10-16T14:13:30;53.15;;;41.22;;
26582;SDS011;14230;45.382;10.998;2022-10-16T14:16:06;58.10;;;41.47;;
26582;SDS011;14230;45.382;10.998;2022-10-16T14:18:35;56.95;;;43.30;;
26582;SDS011;14230;45.382;10.998;2022-10-16T14:21:11;52.53;;;39.80;;
26582;SDS011;14230;45.382;10.998;2022-10-16T14:23:41;56.38;;;41.22;;
26582;SDS011;14230;45.382;10.998;2022-10-16T14:28:37;56.38;;;43.30;;
26582;SDS011;14230;45.382;10.998;2022-10-16T14:33:46;54.28;;;40.88;;
26582;SDS011;14230;45.382;10.998;2022-10-16T14:36:14;56.55;;;42.70;;
26582;SDS011;14230;45.382;10.998;2022-10-16T14:38:48;52.15;;;39.17;;
26582;SDS011;14230;45.382;10.998;2022-10-16T14:41:31;50.70;;;39.85;;
26582;SDS011;14230;45.382;10.998;2022-10-16T14:44:01;59.83;;;42.65;;
26582;SDS011;14230;45.382;10.998;2022-10-16T14:46:31;54.60;;;38.75;;
26582;SDS011;14230;45.382;10.998;2022-10-16T14:49:03;54.97;;;41.75;;
26582;SDS011;14230;45.382;10.998;2022-10-16T14:51:38;54.65;;;37.67;;
26582;SDS011;14230;45.382;10.998;2022-10-16T14:54:12;55.80;;;41.50;;
26582;SDS011;14230;45.382;10.998;2022-10-16T14:56:47;54.10;;;38.10;;
26582;SDS011;14230;45.382;10.998;2022-10-16T15:01:48;60.20;;;38.65;;
26582;SDS011;14230;45.382;10.998;2022-10-16T15:04:15;52.42;;;39.92;;
26582;SDS011;14230;45.382;10.998;2022-10-16T15:06:43;55.47;;;39.92;;
26582;SDS011;14230;45.382;10.998;2022-10-16T15:09:10;50.80;;;39.78;;
26582;SDS011;14230;45.382;10.998;2022-10-16T15:11:38;52.15;;;39.65;;
26582;SDS011;14230;45.382;10.998;2022-10-16T15:14:08;52.85;;;39.80;;
26582;SDS011;14230;45.382;10.998;2022-10-16T15:16:38;51.03;;;38.85;;
26582;SDS011;14230;45.382;10.998;2022-10-16T15:19:05;52.42;;;38.70;;
26582;SDS011;14230;45.382;10.998;2022-10-16T15:21:33;47.50;;;37.97;;
26582;SDS011;14230;45.382;10.998;2022-10-16T15:24:00;53.83;;;40.47;;
26582;SDS011;14230;45.382;10.998;2022-10-16T15:26:28;54.40;;;38.78;;
26582;SDS011;14230;45.382;10.998;2022-10-16T15:28:57;52.28;;;37.67;;
26582;SDS011;14230;45.382;10.998;2022-10-16T15:31:24;49.92;;;38.22;;
26582;SDS011;14230;45.382;10.998;2022-10-16T15:33:53;53.13;;;38.03;;
26582;SDS011;14230;45.382;10.998;2022-10-16T15:36:28;51.97;;;40.00;;
26582;SDS011;14230;45.382;10.998;2022-10-16T15:38:56;56.20;;;41.83;;
26582;SDS011;14230;45.382;10.998;2022-10-16T15:41:27;52.33;;;37.60;;
26582;SDS011;14230;45.382;10.998;2022-10-16T15:43:54;53.47;;;39.47;;
26582;SDS011;14230;45.382;10.998;2022-10-16T15:46:23;53.00;;;40.15;;
26582;SDS011;14230;45.382;10.998;2022-10-16T15:48:51;52.17;;;38.25;;
26582;SDS011;14230;45.382;10.998;2022-10-16T15:51:23;48.00;;;37.53;;
26582;SDS011;14230;45.382;10.998;2022-10-16T15:53:54;59.78;;;42.15;;
26582;SDS011;14230;45.382;10.998;2022-10-16T15:56:23;49.60;;;38.22;;
26582;SDS011;14230;45.382;10.998;2022-10-16T15:58:52;53.83;;;41.05;;
26582;SDS011;14230;45.382;10.998;2022-10-16T16:01:20;61.22;;;43.10;;
26582;SDS011;14230;45.382;10.998;2022-10-16T16:03:51;57.45;;;40.70;;
26582;SDS011;14230;45.382;10.998;2022-10-16T16:06:20;56.97;;;42.25;;
26582;SDS011;14230;45.382;10.998;2022-10-16T16:08:52;61.25;;;43.75;;
26582;SDS011;14230;45.382;10.998;2022-10-16T16:11:20;59.40;;;41.50;;
26582;SDS011;14230;45.382;10.998;2022-10-16T16:13:50;61.05;;;43.72;;
26582;SDS011;14230;45.382;10.998;2022-10-16T16:16:17;65.82;;;42.80;;
26582;SDS011;14230;45.382;10.998;2022-10-16T16:18:46;58.03;;;43.38;;
26582;SDS011;14230;45.382;10.998;2022-10-16T16:21:16;62.47;;;39.67;;
26582;SDS011;14230;45.382;10.998;2022-10-16T16:23:44;55.50;;;39.75;;
26582;SDS011;14230;45.382;10.998;2022-10-16T16:28:48;63.65;;;48.35;;
26582;SDS011;14230;45.382;10.998;2022-10-16T16:31:16;63.15;;;44.53;;
26582;SDS011;14230;45.382;10.998;2022-10-16T16:33:43;62.95;;;45.22;;
26582;SDS011;14230;45.382;10.998;2022-10-16T16:36:11;60.97;;;42.72;;
26582;SDS011;14230;45.382;10.998;2022-10-16T16:38:41;67.60;;;43.92;;
26582;SDS011;14230;45.382;10.998;2022-10-16T16:41:16;61.60;;;42.50;;
26582;SDS011;14230;45.382;10.998;2022-10-16T16:43:46;66.18;;;45.35;;
26582;SDS011;14230;45.382;10.998;2022-10-16T16:46:14;60.70;;;42.42;;
26582;SDS011;14230;45.382;10.998;2022-10-16T16:48:42;65.70;;;42.53;;
26582;SDS011;14230;45.382;10.998;2022-10-16T16:51:13;64.70;;;43.15;;
26582;SDS011;14230;45.382;10.998;2022-10-16T16:53:43;168.43;;;113.25;;
26582;SDS011;14230;45.382;10.998;2022-10-16T16:56:13;101.68;;;68.95;;
26582;SDS011;14230;45.382;10.998;2022-10-16T16:58:40;91.20;;;62.08;;
26582;SDS011;14230;45.382;10.998;2022-10-16T17:01:09;80.88;;;53.50;;
26582;SDS011;14230;45.382;10.998;2022-10-16T17:03:53;65.28;;;41.67;;
26582;SDS011;14230;45.382;10.998;2022-10-16T17:06:23;64.85;;;43.38;;